createdAt,value
2022-11-30T00:02:04.645Z,101535.91
2022-11-30T00:04:35.570Z,101537.39
2022-11-30T00:07:06.406Z,101537.05
2022-11-30T00:09:37.193Z,101539.95
2022-11-30T00:12:09.001Z,101541.05
2022-11-30T00:14:39.867Z,101543.15
2022-11-30T00:17:11.255Z,101542.48
2022-11-30T00:19:42.535Z,101537.73
2022-11-30T00:22:13.409Z,101539.91
2022-11-30T00:24:44.384Z,101536.51
2022-11-30T00:27:15.449Z,101538.50
2022-11-30T00:29:46.662Z,101544.98
2022-11-30T00:32:17.428Z,101544.42
2022-11-30T00:34:48.938Z,101540.08
2022-11-30T00:37:19.972Z,101541.93
2022-11-30T00:39:50.786Z,101544.67
2022-11-30T00:42:21.515Z,101542.59
2022-11-30T00:44:52.381Z,101547.19
2022-11-30T00:47:23.255Z,101547.33
2022-11-30T00:49:54.158Z,101551.73
2022-11-30T00:52:24.997Z,101550.55
2022-11-30T00:54:55.835Z,101548.73
2022-11-30T00:57:26.693Z,101554.83
2022-11-30T00:59:57.482Z,101551.59
2022-11-30T01:02:28.378Z,101548.93
2022-11-30T01:04:59.171Z,101552.04
2022-11-30T01:07:30.039Z,101558.20
2022-11-30T01:10:00.859Z,101557.30
2022-11-30T01:12:31.748Z,101557.47
2022-11-30T01:15:02.626Z,101562.51
2022-11-30T01:17:33.475Z,101559.98
2022-11-30T01:20:04.915Z,101553.68
2022-11-30T01:22:36.079Z,101558.58
2022-11-30T01:25:08.180Z,101555.13
2022-11-30T01:27:38.972Z,101554.59
2022-11-30T01:30:11.943Z,101562.02
2022-11-30T01:32:42.803Z,101563.27
2022-11-30T01:35:13.874Z,101564.44
2022-11-30T01:37:44.786Z,101571.13
2022-11-30T01:40:16.335Z,101571.86
2022-11-30T01:42:49.534Z,101567.73
2022-11-30T01:45:21.105Z,101568.92
2022-11-30T01:47:56.595Z,101570.14
2022-11-30T01:50:31.601Z,101575.39
2022-11-30T01:53:05.494Z,101572.02
2022-11-30T01:55:39.393Z,101571.35
2022-11-30T01:58:15.047Z,101573.69
2022-11-30T02:00:48.838Z,101574.31
2022-11-30T02:03:27.591Z,101575.73
2022-11-30T02:05:58.462Z,101572.00
2022-11-30T02:08:30.076Z,101567.36
2022-11-30T02:11:05.304Z,101571.65
2022-11-30T02:13:52.845Z,101570.83
2022-11-30T02:16:29.741Z,101571.02
2022-11-30T02:19:19.271Z,101571.38
2022-11-30T02:21:55.809Z,101568.90
2022-11-30T02:24:52.117Z,101565.85
2022-11-30T02:27:32.774Z,101569.42
2022-11-30T02:30:10.252Z,101569.38
2022-11-30T02:32:44.684Z,101573.85
2022-11-30T02:35:19.522Z,101572.19
2022-11-30T02:37:51.649Z,101577.80
2022-11-30T02:40:23.261Z,101579.64
2022-11-30T02:42:56.927Z,101578.73
2022-11-30T02:45:34.746Z,101585.73
2022-11-30T02:48:11.496Z,101586.29
2022-11-30T02:50:45.750Z,101582.95
2022-11-30T02:53:16.692Z,101582.44
2022-11-30T02:55:47.519Z,101587.05
2022-11-30T02:58:19.144Z,101584.08
2022-11-30T03:00:50.225Z,101586.13
2022-11-30T03:03:20.973Z,101582.02
2022-11-30T03:05:51.797Z,101584.94
2022-11-30T03:08:22.569Z,101589.35
2022-11-30T03:10:53.358Z,101589.57
2022-11-30T03:13:24.120Z,101589.67
2022-11-30T03:15:55.070Z,101585.37
2022-11-30T03:18:25.982Z,101588.02
2022-11-30T03:20:56.781Z,101591.12
2022-11-30T03:23:27.564Z,101588.94
2022-11-30T03:26:01.447Z,101588.55
2022-11-30T03:28:32.814Z,101588.26
2022-11-30T03:31:03.779Z,101590.88
2022-11-30T03:33:34.801Z,101593.73
2022-11-30T03:36:07.763Z,101595.33
2022-11-30T03:38:39.141Z,101597.04
2022-11-30T03:41:13.564Z,101603.83
2022-11-30T03:43:45.061Z,101608.70
2022-11-30T03:46:16.531Z,101609.06
2022-11-30T03:48:48.391Z,101610.92
2022-11-30T03:51:19.296Z,101609.18
2022-11-30T03:53:50.109Z,101611.14
2022-11-30T03:56:21.047Z,101610.14
2022-11-30T03:58:51.890Z,101605.64
2022-11-30T04:01:24.072Z,101604.48
2022-11-30T04:03:55.367Z,101605.79
2022-11-30T04:06:26.446Z,101610.70
2022-11-30T04:08:57.316Z,101614.49
2022-11-30T04:11:28.097Z,101617.98
2022-11-30T04:13:58.908Z,101618.58
2022-11-30T04:16:29.722Z,101623.42
2022-11-30T04:19:00.671Z,101618.98
2022-11-30T04:21:31.476Z,101622.13
2022-11-30T04:24:02.444Z,101621.11
2022-11-30T04:26:33.376Z,101622.58
2022-11-30T04:29:05.417Z,101618.78
2022-11-30T04:31:36.406Z,101617.12
2022-11-30T04:34:07.309Z,101619.27
2022-11-30T04:36:38.167Z,101622.45
2022-11-30T04:39:09.434Z,101625.24
2022-11-30T04:41:40.592Z,101625.55
2022-11-30T04:44:11.735Z,101632.38
2022-11-30T04:46:42.567Z,101630.28
2022-11-30T04:49:13.479Z,101625.13
2022-11-30T04:51:44.603Z,101630.46
2022-11-30T04:54:15.409Z,101629.90
2022-11-30T04:56:46.195Z,101633.89
2022-11-30T04:59:16.928Z,101632.48
2022-11-30T05:01:47.800Z,101635.23
2022-11-30T05:04:19.139Z,101634.47
2022-11-30T05:06:49.998Z,101634.17
2022-11-30T05:09:20.876Z,101640.30
2022-11-30T05:11:51.814Z,101640.79
2022-11-30T05:14:22.650Z,101641.59
2022-11-30T05:16:53.434Z,101644.35
2022-11-30T05:19:24.430Z,101644.48
2022-11-30T05:21:55.204Z,101642.17
2022-11-30T05:24:25.986Z,101636.39
2022-11-30T05:26:56.794Z,101638.09
2022-11-30T05:29:27.840Z,101634.84
2022-11-30T05:31:58.775Z,101638.13
2022-11-30T05:34:29.878Z,101641.35
2022-11-30T05:37:01.280Z,101640.17
2022-11-30T05:39:32.035Z,101643.77
2022-11-30T05:42:02.826Z,101651.45
2022-11-30T05:44:34.139Z,101650.23
2022-11-30T05:47:05.643Z,101655.33
2022-11-30T05:49:36.714Z,101655.84
2022-11-30T05:52:07.832Z,101660.05
2022-11-30T05:54:38.701Z,101660.46
2022-11-30T05:57:09.508Z,101662.08
2022-11-30T05:59:40.276Z,101664.48
2022-11-30T06:02:11.198Z,101663.80
2022-11-30T06:04:42.151Z,101665.80
2022-11-30T06:07:12.931Z,101664.48
2022-11-30T06:09:43.912Z,101674.79
2022-11-30T06:12:14.745Z,101675.80
2022-11-30T06:14:45.808Z,101679.10
2022-11-30T06:17:17.306Z,101674.83
2022-11-30T06:19:48.188Z,101672.66
2022-11-30T06:22:18.949Z,101675.13
2022-11-30T06:24:49.882Z,101673.61
2022-11-30T06:27:20.886Z,101670.86
2022-11-30T06:29:51.969Z,101675.86
2022-11-30T06:32:23.246Z,101672.86
2022-11-30T06:34:54.380Z,101675.45
2022-11-30T06:37:25.217Z,101678.96
2022-11-30T06:40:06.636Z,101683.00
2022-11-30T06:42:39.756Z,101688.73
2022-11-30T06:45:12.075Z,101687.68
2022-11-30T06:47:42.924Z,101684.33
2022-11-30T06:50:14.782Z,101688.23
2022-11-30T06:52:45.563Z,101693.08
2022-11-30T06:55:16.749Z,101698.48
2022-11-30T06:57:47.803Z,101697.56
2022-11-30T07:00:20.741Z,101695.45
2022-11-30T07:02:51.628Z,101694.67
2022-11-30T07:05:22.444Z,101695.48
2022-11-30T07:07:53.320Z,101698.64
2022-11-30T07:10:24.263Z,101700.93
2022-11-30T07:12:55.039Z,101702.17
2022-11-30T07:15:25.971Z,101704.80
2022-11-30T07:17:56.787Z,101707.21
2022-11-30T07:20:27.655Z,101708.69
2022-11-30T07:23:19.642Z,101712.86
2022-11-30T07:26:17.670Z,101706.33
2022-11-30T07:28:51.091Z,101710.23
2022-11-30T07:31:25.508Z,101707.79
2022-11-30T07:33:57.753Z,101711.80
2022-11-30T07:36:30.395Z,101707.80
2022-11-30T07:39:01.515Z,101709.56
2022-11-30T07:41:32.332Z,101718.21
2022-11-30T07:44:06.993Z,101719.20
2022-11-30T07:46:39.222Z,101719.09
2022-11-30T07:49:11.839Z,101718.14
2022-11-30T07:51:42.804Z,101719.72
2022-11-30T07:54:13.764Z,101720.55
2022-11-30T07:56:44.972Z,101723.02
2022-11-30T07:59:15.769Z,101727.96
2022-11-30T08:01:46.666Z,101724.77
2022-11-30T08:04:17.686Z,101721.71
2022-11-30T08:06:49.158Z,101719.55
2022-11-30T08:09:20.996Z,101722.71
2022-11-30T08:11:52.005Z,101717.51
2022-11-30T08:14:23.157Z,101715.13
2022-11-30T08:16:54.006Z,101718.07
2022-11-30T08:19:24.956Z,101714.70
2022-11-30T08:21:56.098Z,101720.53
2022-11-30T08:24:27.113Z,101719.60
2022-11-30T08:26:58.133Z,101722.03
2022-11-30T08:29:29.020Z,101716.07
2022-11-30T08:32:00.731Z,101722.74
2022-11-30T08:34:31.656Z,101724.65
2022-11-30T08:37:02.474Z,101729.89
2022-11-30T08:39:34.659Z,101728.61
2022-11-30T08:42:05.865Z,101721.68
2022-11-30T08:44:36.684Z,101723.35
2022-11-30T08:47:07.782Z,101726.33
2022-11-30T08:49:38.621Z,101732.81
2022-11-30T08:52:18.230Z,101725.27
2022-11-30T08:54:51.006Z,101729.16
2022-11-30T08:57:22.859Z,101727.06
2022-11-30T08:59:53.941Z,101727.86
2022-11-30T09:02:24.734Z,101722.46
2022-11-30T09:04:55.570Z,101727.48
2022-11-30T09:07:26.811Z,101723.54
2022-11-30T09:09:57.623Z,101723.08
2022-11-30T09:12:28.603Z,101723.73
2022-11-30T09:15:00.216Z,101723.38
2022-11-30T09:17:31.182Z,101728.09
2022-11-30T09:20:02.808Z,101731.10
2022-11-30T09:22:33.588Z,101734.54
2022-11-30T09:25:04.457Z,101739.00
2022-11-30T09:27:35.848Z,101742.07
2022-11-30T09:30:18.740Z,101734.34
2022-11-30T09:32:49.715Z,101737.58
2022-11-30T09:35:20.654Z,101736.59
2022-11-30T09:37:51.449Z,101737.75
2022-11-30T09:40:24.646Z,101733.21
2022-11-30T09:43:03.537Z,101730.89
2022-11-30T09:45:37.361Z,101733.17
2022-11-30T09:48:32.195Z,101732.67
2022-11-30T09:51:14.993Z,101733.02
2022-11-30T09:53:51.586Z,101736.27
2022-11-30T09:56:28.667Z,101733.79
2022-11-30T09:59:05.871Z,101726.80
2022-11-30T10:01:37.901Z,101728.89
2022-11-30T10:04:18.019Z,101729.52
2022-11-30T10:06:58.678Z,101728.80
2022-11-30T10:09:39.559Z,101727.61
2022-11-30T10:12:15.671Z,101728.95
2022-11-30T10:15:16.967Z,101729.23
2022-11-30T10:17:56.498Z,101730.83
2022-11-30T10:20:42.359Z,101727.39
2022-11-30T10:23:26.832Z,101729.54
2022-11-30T10:25:59.585Z,101726.20
2022-11-30T10:28:47.891Z,101722.25
2022-11-30T10:31:21.129Z,101724.55
2022-11-30T10:33:55.648Z,101726.52
2022-11-30T10:36:34.961Z,101724.61
2022-11-30T10:39:14.528Z,101720.17
2022-11-30T10:41:49.557Z,101721.38
2022-11-30T10:44:28.417Z,101720.17
2022-11-30T10:47:04.801Z,101720.66
2022-11-30T10:49:37.792Z,101726.33
2022-11-30T10:52:12.725Z,101722.88
2022-11-30T10:54:43.739Z,101719.16
2022-11-30T10:57:15.720Z,101713.91
2022-11-30T10:59:49.898Z,101718.96
2022-11-30T11:02:42.683Z,101716.49
2022-11-30T11:05:22.915Z,101716.42
2022-11-30T11:08:04.689Z,101708.45
2022-11-30T11:10:45.177Z,101710.54
2022-11-30T11:13:21.556Z,101707.38
2022-11-30T11:16:01.804Z,101709.95
2022-11-30T11:18:34.241Z,101712.30
2022-11-30T11:21:08.414Z,101715.98
2022-11-30T11:23:42.710Z,101713.83
2022-11-30T11:26:23.630Z,101717.98
2022-11-30T11:28:57.282Z,101710.70
2022-11-30T11:31:38.605Z,101714.84
2022-11-30T11:34:27.337Z,101717.91
2022-11-30T11:37:15.353Z,101714.13
2022-11-30T11:39:55.942Z,101711.52
2022-11-30T11:42:28.219Z,101708.45
2022-11-30T11:45:02.065Z,101712.83
2022-11-30T11:47:42.540Z,101712.34
2022-11-30T11:53:26.455Z,101710.75
2022-11-30T11:56:01.287Z,101708.77
2022-11-30T11:58:42.781Z,101708.70
2022-11-30T12:01:42.944Z,101708.66
2022-11-30T12:04:44.423Z,101705.87
2022-11-30T12:07:25.301Z,101712.56
2022-11-30T12:10:12.636Z,101715.08
2022-11-30T12:12:55.127Z,101714.60
2022-11-30T12:15:34.046Z,101714.02
2022-11-30T12:18:23.569Z,101715.30
2022-11-30T12:21:00.619Z,101713.48
2022-11-30T12:23:52.687Z,101712.27
2022-11-30T12:26:35.592Z,101713.06
2022-11-30T12:29:24.463Z,101712.33
2022-11-30T12:32:07.365Z,101716.92
2022-11-30T12:34:57.257Z,101717.67
2022-11-30T12:37:43.011Z,101717.40
2022-11-30T12:40:27.854Z,101721.27
2022-11-30T12:43:10.432Z,101719.67
2022-11-30T12:45:44.455Z,101725.19
2022-11-30T12:48:27.374Z,101721.62
2022-11-30T12:51:12.953Z,101717.63
2022-11-30T12:53:46.851Z,101717.23
2022-11-30T12:56:29.066Z,101723.35
2022-11-30T12:59:09.622Z,101723.52
2022-11-30T13:01:59.860Z,101723.74
2022-11-30T13:04:37.973Z,101724.18
2022-11-30T13:07:15.963Z,101725.41
2022-11-30T13:09:53.131Z,101718.07
2022-11-30T13:12:36.094Z,101720.88
2022-11-30T13:15:15.893Z,101721.87
2022-11-30T13:17:47.766Z,101723.13
2022-11-30T13:20:26.993Z,101726.05
2022-11-30T13:23:04.279Z,101721.89
2022-11-30T13:28:49.776Z,101719.97
2022-11-30T13:31:25.543Z,101715.70
2022-11-30T13:34:02.141Z,101712.27
2022-11-30T13:36:41.343Z,101715.04
2022-11-30T13:39:33.857Z,101716.40
2022-11-30T13:42:43.039Z,101713.61
2022-11-30T13:45:30.128Z,101715.35
2022-11-30T13:48:17.506Z,101717.78
2022-11-30T13:50:50.600Z,101719.61
2022-11-30T13:53:27.397Z,101721.18
2022-11-30T13:56:03.966Z,101723.44
2022-11-30T13:58:35.672Z,101728.91
2022-11-30T14:01:24.711Z,101728.52
2022-11-30T14:04:34.102Z,101727.36
2022-11-30T14:07:09.951Z,101724.67
2022-11-30T14:10:00.995Z,101725.86
2022-11-30T14:13:02.216Z,101727.42
2022-11-30T14:15:59.941Z,101728.47
2022-11-30T14:18:48.091Z,101728.13
2022-11-30T14:21:23.710Z,101721.36
2022-11-30T14:23:59.322Z,101721.83
2022-11-30T14:26:36.843Z,101722.17
2022-11-30T14:29:18.841Z,101721.71
2022-11-30T14:31:57.426Z,101725.23
2022-11-30T14:34:32.567Z,101724.43
2022-11-30T14:37:04.230Z,101728.70
2022-11-30T14:39:39.106Z,101728.02
2022-11-30T14:42:23.953Z,101732.01
2022-11-30T14:44:55.579Z,101729.53
2022-11-30T14:47:29.065Z,101729.83
2022-11-30T14:50:03.013Z,101729.48
2022-11-30T14:52:50.834Z,101731.41
2022-11-30T14:55:32.399Z,101734.76
2022-11-30T14:58:17.803Z,101734.58
2022-11-30T15:00:50.008Z,101740.20
2022-11-30T15:03:26.716Z,101736.85
2022-11-30T15:06:00.655Z,101733.38
2022-11-30T15:08:36.694Z,101735.95
2022-11-30T15:11:10.554Z,101738.05
2022-11-30T15:13:44.751Z,101738.48
2022-11-30T15:16:22.614Z,101730.79
2022-11-30T15:18:54.790Z,101727.95
2022-11-30T15:21:27.506Z,101730.18
2022-11-30T15:24:00.612Z,101735.58
2022-11-30T15:26:38.042Z,101736.92
2022-11-30T15:29:14.059Z,101734.38
2022-11-30T15:31:50.168Z,101734.58
2022-11-30T15:34:23.273Z,101736.77
2022-11-30T15:36:56.847Z,101739.97
2022-11-30T15:39:30.511Z,101750.80
2022-11-30T15:42:03.305Z,101755.08
2022-11-30T15:44:45.525Z,101747.08
2022-11-30T15:47:32.852Z,101745.49
2022-11-30T15:50:04.582Z,101745.77
2022-11-30T15:52:36.466Z,101747.03
2022-11-30T15:55:28.166Z,101743.67
2022-11-30T15:58:03.399Z,101741.52
2022-11-30T16:00:32.591Z,101737.86
2022-11-30T16:03:12.990Z,101739.39
2022-11-30T16:05:58.542Z,101738.65
2022-11-30T16:08:28.132Z,101743.64
2022-11-30T16:11:03.111Z,101748.60
2022-11-30T16:13:37.105Z,101748.58
2022-11-30T16:16:14.207Z,101750.36
2022-11-30T16:18:45.046Z,101745.81
2022-11-30T16:21:18.819Z,101750.68
2022-11-30T16:23:50.106Z,101747.63
2022-11-30T16:26:50.673Z,101748.95
2022-11-30T16:29:12.617Z,101748.98
2022-11-30T16:31:43.567Z,101758.26
2022-11-30T16:34:15.024Z,101749.58
2022-11-30T16:36:45.941Z,101751.73
2022-11-30T16:39:16.798Z,101748.08
2022-11-30T16:41:47.617Z,101747.89
2022-11-30T16:44:18.483Z,101749.62
2022-11-30T16:46:49.776Z,101757.15
2022-11-30T16:49:20.661Z,101760.05
2022-11-30T16:51:51.575Z,101760.01
2022-11-30T16:54:22.521Z,101764.13
2022-11-30T16:56:53.350Z,101764.41
2022-11-30T16:59:24.163Z,101766.19
2022-11-30T17:01:55.163Z,101772.46
2022-11-30T17:04:29.650Z,101777.45
2022-11-30T17:07:02.720Z,101775.96
2022-11-30T17:09:34.677Z,101774.77
2022-11-30T17:12:05.720Z,101770.80
2022-11-30T17:14:37.139Z,101766.73
2022-11-30T17:17:08.169Z,101771.13
2022-11-30T17:19:39.068Z,101777.95
2022-11-30T17:22:10.075Z,101775.08
2022-11-30T17:24:41.264Z,101780.55
2022-11-30T17:27:12.508Z,101787.59
2022-11-30T17:29:43.809Z,101782.39
2022-11-30T17:32:14.781Z,101782.85
2022-11-30T17:34:45.888Z,101783.61
2022-11-30T17:37:17.013Z,101781.75
2022-11-30T17:39:50.589Z,101779.45
2022-11-30T17:42:22.269Z,101787.39
2022-11-30T17:44:53.074Z,101785.84
2022-11-30T17:47:24.055Z,101785.32
2022-11-30T17:49:54.990Z,101781.77
2022-11-30T17:52:25.967Z,101787.54
2022-11-30T17:54:56.909Z,101788.28
2022-11-30T17:57:27.678Z,101789.09
2022-11-30T17:59:58.602Z,101787.16
2022-11-30T18:02:29.594Z,101789.48
2022-11-30T18:05:00.567Z,101791.81
2022-11-30T18:07:31.387Z,101796.20
2022-11-30T18:10:02.682Z,101793.77
2022-11-30T18:12:33.472Z,101797.77
2022-11-30T18:15:04.475Z,101799.12
2022-11-30T18:17:35.783Z,101796.48
2022-11-30T18:20:08.240Z,101798.50
2022-11-30T18:22:39.184Z,101805.93
2022-11-30T18:25:11.142Z,101807.84
2022-11-30T18:27:42.171Z,101807.33
2022-11-30T18:30:15.035Z,101809.52
2022-11-30T18:32:46.013Z,101804.11
2022-11-30T18:35:17.110Z,101805.30
2022-11-30T18:37:48.032Z,101808.03
2022-11-30T18:40:19.207Z,101804.83
2022-11-30T18:42:51.337Z,101804.44
2022-11-30T18:45:22.122Z,101804.08
2022-11-30T18:47:52.962Z,101801.63
2022-11-30T18:50:23.780Z,101802.04
2022-11-30T18:52:55.632Z,101799.90
2022-11-30T18:55:26.974Z,101802.64
2022-11-30T18:58:17.601Z,101804.49
2022-11-30T19:00:48.435Z,101800.65
2022-11-30T19:03:19.484Z,101798.05
2022-11-30T19:05:51.022Z,101797.09
2022-11-30T19:08:22.228Z,101796.99
2022-11-30T19:10:53.424Z,101796.23
2022-11-30T19:13:24.755Z,101795.27
2022-11-30T19:15:56.102Z,101797.55
2022-11-30T19:18:27.564Z,101798.38
2022-11-30T19:21:01.694Z,101799.27
2022-11-30T19:23:33.578Z,101798.70
2022-11-30T19:26:35.318Z,101801.66
2022-11-30T19:29:07.377Z,101803.37
2022-11-30T19:31:39.109Z,101802.58
2022-11-30T19:34:13.334Z,101804.48
2022-11-30T19:36:44.994Z,101807.54
2022-11-30T19:39:16.812Z,101809.64
2022-11-30T19:41:48.752Z,101811.08
2022-11-30T19:44:20.821Z,101811.64
2022-11-30T19:46:52.179Z,101813.25
2022-11-30T19:49:23.723Z,101809.82
2022-11-30T19:51:55.614Z,101813.59
2022-11-30T19:54:31.894Z,101814.46
2022-11-30T19:57:03.807Z,101818.64
2022-11-30T19:59:35.441Z,101817.71
2022-11-30T20:02:07.012Z,101822.10
2022-11-30T20:04:38.623Z,101821.77
2022-11-30T20:07:12.377Z,101823.48
2022-11-30T20:09:44.086Z,101820.19
2022-11-30T20:12:15.239Z,101823.86
2022-11-30T20:14:48.367Z,101821.22
2022-11-30T20:17:19.547Z,101826.30
2022-11-30T20:19:50.897Z,101826.48
2022-11-30T20:22:23.836Z,101824.98
2022-11-30T20:24:56.490Z,101830.95
2022-11-30T20:27:28.081Z,101827.48
2022-11-30T20:29:59.123Z,101828.33
2022-11-30T20:32:30.392Z,101826.38
2022-11-30T20:35:01.261Z,101826.91
2022-11-30T20:37:32.380Z,101823.38
2022-11-30T20:40:03.829Z,101822.71
2022-11-30T20:42:35.069Z,101825.25
2022-11-30T20:45:07.637Z,101829.97
2022-11-30T20:47:38.561Z,101832.39
2022-11-30T20:50:11.505Z,101829.48
2022-11-30T20:52:42.798Z,101830.30
2022-11-30T20:55:13.850Z,101832.73
2022-11-30T20:57:53.169Z,101833.10
2022-11-30T21:00:26.473Z,101837.21
2022-11-30T21:02:57.702Z,101837.13
2022-11-30T21:05:28.599Z,101839.78
2022-11-30T21:07:59.675Z,101835.21
2022-11-30T21:10:30.810Z,101838.27
2022-11-30T21:13:01.901Z,101835.20
2022-11-30T21:15:33.707Z,101832.92
2022-11-30T21:18:04.866Z,101834.98
2022-11-30T21:20:35.995Z,101836.90
2022-11-30T21:23:07.481Z,101838.02
2022-11-30T21:25:38.935Z,101834.66
2022-11-30T21:28:09.971Z,101839.10
2022-11-30T21:30:42.778Z,101838.98
2022-11-30T21:33:13.854Z,101839.20
2022-11-30T21:35:44.648Z,101838.60
2022-11-30T21:38:15.581Z,101837.84
2022-11-30T21:40:56.413Z,101841.04
2022-11-30T21:43:27.714Z,101839.60
2022-11-30T21:46:03.733Z,101839.20
2022-11-30T21:48:39.731Z,101838.48
2022-11-30T21:51:12.979Z,101836.77
2022-11-30T21:53:46.082Z,101834.70
2022-11-30T21:56:18.752Z,101831.14
2022-11-30T21:58:51.144Z,101831.42
2022-11-30T22:01:25.418Z,101831.21
2022-11-30T22:03:57.465Z,101835.92
2022-11-30T22:06:29.792Z,101839.69
2022-11-30T22:09:07.811Z,101837.16
2022-11-30T22:11:40.083Z,101836.85
2022-11-30T22:14:15.564Z,101838.55
2022-11-30T22:16:46.724Z,101836.09
2022-11-30T22:19:18.600Z,101834.92
2022-11-30T22:21:50.643Z,101836.73
2022-11-30T22:24:21.585Z,101836.95
2022-11-30T22:26:52.443Z,101834.17
2022-11-30T22:29:24.478Z,101832.02
2022-11-30T22:31:56.067Z,101832.14
2022-11-30T22:34:26.845Z,101834.44
2022-11-30T22:36:57.649Z,101835.61
2022-11-30T22:39:28.492Z,101838.48
2022-11-30T22:41:59.231Z,101844.13
2022-11-30T22:44:30.207Z,101840.46
2022-11-30T22:47:01.057Z,101836.83
2022-11-30T22:49:31.903Z,101837.83
2022-11-30T22:52:02.744Z,101838.05
2022-11-30T22:54:34.148Z,101831.92
2022-11-30T22:57:05.210Z,101831.45
2022-11-30T22:59:36.059Z,101833.16
2022-11-30T23:02:06.850Z,101828.67
2022-11-30T23:04:37.995Z,101826.73
2022-11-30T23:07:08.900Z,101829.26
2022-11-30T23:09:39.710Z,101823.45
2022-11-30T23:12:16.941Z,101822.39
2022-11-30T23:14:55.637Z,101824.01
2022-11-30T23:17:26.421Z,101822.48
2022-11-30T23:19:57.727Z,101819.73
2022-11-30T23:22:28.565Z,101816.52
2022-11-30T23:24:59.390Z,101818.98
2022-11-30T23:27:30.540Z,101814.38
2022-11-30T23:30:01.412Z,101813.71
2022-11-30T23:32:32.480Z,101815.29
2022-11-30T23:35:03.266Z,101812.53
2022-11-30T23:37:34.061Z,101812.48
2022-11-30T23:40:05.191Z,101812.02
2022-11-30T23:42:36.029Z,101809.52
2022-11-30T23:45:08.193Z,101807.52
2022-11-30T23:47:39.087Z,101808.02
2022-11-30T23:50:11.677Z,101808.72
2022-11-30T23:52:42.569Z,101809.90
2022-11-30T23:55:13.854Z,101813.27
2022-11-30T23:57:44.770Z,101808.86
